Latest Weather Observations for Spitfire Channel

IDQ60801

Issued at 4:32 pm EST Saturday 4 July 2015 (issued every 30 minutes, with the page automatically refreshed every 10 minutes)

About weather observations | Map of weather stations | Latest weather observations for QLD | Other Formats
Station Details ID: 040927 Name: SPITFIRE CHANNEL BEACON Lat: -27.05 Lon: 153.27 Height: 7.0 m
Data from the previous 72 hours. | See also: Recent months for locations in Queensland
Date/Time
EST
Temp
°C
App
Temp
°C
Dew
Point
Rel
Hum
%
Delta-T
°C
Wind Press
QNH
hPa
Press
MSL
hPa
Rain
since 9 am
mm
Dir
 
Spd
km/h
Gust
km/h
Spd
kts
Gust
kts
04/04:30pm - - - - - SSE 11 13 6 7 - - -
04/04:00pm - - - - - SE 13 15 7 8 - - -
04/03:30pm - - - - - SSE 13 15 7 8 - - -
04/03:00pm - - - - - S 11 15 6 8 - - -
04/02:30pm - - - - - S 17 19 9 10 - - -
04/02:00pm - - - - - SSE 11 15 6 8 - - -
04/01:30pm - - - - - SSE 9 11 5 6 - - -
04/01:00pm - - - - - S 11 13 6 7 - - -
04/12:30pm - - - - - S 17 19 9 10 - - -
04/12:00pm - - - - - S 17 20 9 11 - - -
04/11:30am - - - - - S 17 22 9 12 - - -
04/11:00am - - - - - S 15 20 8 11 - - -
04/10:30am - - - - - S 15 20 8 11 - - -
04/10:00am - - - - - S 17 20 9 11 - - -
04/09:30am - - - - - S 20 24 11 13 - - -
04/09:00am - - - - - SSW 22 26 12 14 - - -
04/08:30am - - - - - S 22 28 12 15 - - -
04/08:00am - - - - - S 20 24 11 13 - - -
04/07:30am - - - - - SSW 22 26 12 14 - - -
04/07:00am - - - - - SSW 20 24 11 13 - - -
04/06:30am - - - - - SSW 24 28 13 15 - - -
04/06:00am - - - - - S 28 32 15 17 - - -
04/05:30am - - - - - S 28 32 15 17 - - -
04/05:00am - - - - - S 28 32 15 17 - - -
04/04:30am - - - - - S 30 33 16 18 - - -
04/04:00am - - - - - S 32 37 17 20 - - -
04/03:30am - - - - - S 28 33 15 18 - - -
04/03:00am - - - - - S 30 33 16 18 - - -
04/02:30am - - - - - S 30 35 16 19 - - -
04/02:00am - - - - - S 26 32 14 17 - - -
04/01:30am - - - - - SSW 22 28 12 15 - - -
04/01:00am - - - - - S 22 24 12 13 - - -
04/12:30am - - - - - SSE 24 28 13 15 - - -
04/12:00am - - - - - S 20 24 11 13 - - -
 
Date/Time
EST
Temp
°C
App
Temp
°C
Dew
Point
Rel
Hum
%
Delta-T
°C
Wind Press
QNH
hPa
Press
MSL
hPa
Rain
since 9 am
mm
Dir
 
Spd
km/h
Gust
km/h
Spd
kts
Gust
kts
03/11:30pm - - - - - SSE 24 35 13 19 - - -
03/11:00pm - - - - - SSE 22 28 12 15 - - -
03/10:30pm - - - - - SSE 28 33 15 18 - - -
03/10:00pm - - - - - S 26 30 14 16 - - -
03/09:30pm - - - - - S 24 32 13 17 - - -
03/09:00pm - - - - - S 26 32 14 17 - - -
03/08:30pm - - - - - SSE 30 37 16 20 - - -
03/08:00pm - - - - - SSE 30 37 16 20 - - -
03/07:30pm - - - - - SSE 32 39 17 21 - - -
03/07:00pm - - - - - SSE 28 33 15 18 - - -
03/06:30pm - - - - - SSE 30 35 16 19 - - -
03/06:00pm - - - - - SSE 32 37 17 20 - - -
03/05:30pm - - - - - SE 33 39 18 21 - - -
03/05:00pm - - - - - SE 32 37 17 20 - - -
03/04:30pm - - - - - SE 32 37 17 20 - - -
03/04:00pm - - - - - SSE 30 35 16 19 - - -
03/03:30pm - - - - - SE 32 35 17 19 - - -
03/03:00pm - - - - - SE 32 37 17 20 - - -
03/02:30pm - - - - - SSE 30 35 16 19 - - -
03/02:00pm - - - - - SSE 26 32 14 17 - - -
03/01:30pm - - - - - S 28 33 15 18 - - -
03/01:00pm - - - - - S 28 33 15 18 - - -
03/12:30pm - - - - - S 26 32 14 17 - - -
03/12:00pm - - - - - S 26 32 14 17 - - -
03/11:30am - - - - - S 28 33 15 18 - - -
03/11:00am - - - - - S 26 32 14 17 - - -
03/10:30am - - - - - S 26 32 14 17 - - -
03/10:00am - - - - - S 30 37 16 20 - - -
03/09:30am - - - - - S 26 32 14 17 - - -
03/09:00am - - - - - S 28 37 15 20 - - -
03/08:30am - - - - - S 30 39 16 21 - - -
03/08:00am - - - - - S 32 37 17 20 - - -
03/07:30am - - - - - S 32 39 17 21 - - -
03/07:00am - - - - - S 28 35 15 19 - - -
03/06:30am - - - - - SSW 28 35 15 19 - - -
03/06:00am - - - - - SSW 32 37 17 20 - - -
03/05:30am - - - - - SSW 32 37 17 20 - - -
03/05:00am - - - - - SSW 32 37 17 20 - - -
03/04:30am - - - - - SSW 32 37 17 20 - - -
03/04:00am - - - - - SW 26 33 14 18 - - -
03/03:30am - - - - - SSW 28 35 15 19 - - -
03/03:00am - - - - - SW 26 32 14 17 - - -
03/02:30am - - - - - SW 30 39 16 21 - - -
03/02:00am - - - - - SW 26 32 14 17 - - -
03/01:30am - - - - - SW 26 30 14 16 - - -
03/01:00am - - - - - SW 28 33 15 18 - - -
03/12:30am - - - - - SW 32 37 17 20 - - -
03/12:00am - - - - - SW 32 39 17 21 - - -
 
Date/Time
EST
Temp
°C
App
Temp
°C
Dew
Point
Rel
Hum
%
Delta-T
°C
Wind Press
QNH
hPa
Press
MSL
hPa
Rain
since 9 am
mm
Dir
 
Spd
km/h
Gust
km/h
Spd
kts
Gust
kts
02/11:30pm - - - - - SW 26 32 14 17 - - -
02/11:00pm - - - - - SW 32 37 17 20 - - -
02/10:30pm - - - - - SW 26 32 14 17 - - -
02/10:00pm - - - - - SW 24 30 13 16 - - -
02/09:30pm - - - - - SW 26 32 14 17 - - -
02/09:00pm - - - - - SW 32 35 17 19 - - -
02/08:30pm - - - - - SW 28 35 15 19 - - -
02/08:00pm - - - - - WSW 24 30 13 16 - - -
02/07:30pm - - - - - WSW 24 30 13 16 - - -
02/07:00pm - - - - - WSW 22 28 12 15 - - -
02/06:30pm - - - - - WSW 26 30 14 16 - - -
02/06:00pm - - - - - SW 24 28 13 15 - - -
02/05:30pm - - - - - WSW 22 28 12 15 - - -
02/05:00pm - - - - - WSW 15 19 8 10 - - -
02/04:30pm - - - - - WSW 19 24 10 13 - - -
02/04:00pm - - - - - WSW 24 30 13 16 - - -
02/03:30pm - - - - - WSW 28 33 15 18 - - -
02/03:00pm - - - - - WSW 26 32 14 17 - - -
02/02:30pm - - - - - SW 20 26 11 14 - - -
02/02:00pm - - - - - SW 24 28 13 15 - - -
02/01:30pm - - - - - SW 19 22 10 12 - - -
02/01:00pm - - - - - SSW 22 24 12 13 - - -
02/12:30pm - - - - - SSW 20 24 11 13 - - -
02/12:00pm - - - - - SW 19 22 10 12 - - -
02/11:30am - - - - - SW 19 22 10 12 - - -
02/11:00am - - - - - SW 15 17 8 9 - - -
02/10:30am - - - - - SW 15 19 8 10 - - -
02/10:00am - - - - - SW 19 22 10 12 - - -
02/09:30am - - - - - SW 17 20 9 11 - - -
02/09:00am - - - - - SW 15 19 8 10 - - -
02/08:30am - - - - - SW 17 20 9 11 - - -
02/08:00am - - - - - SW 15 17 8 9 - - -
02/07:30am - - - - - SW 17 20 9 11 - - -
02/07:00am - - - - - SW 17 20 9 11 - - -
02/06:30am - - - - - WSW 22 24 12 13 - - -
02/06:00am - - - - - WSW 19 20 10 11 - - -
02/05:30am - - - - - WSW 19 20 10 11 - - -
02/05:00am - - - - - WSW 15 17 8 9 - - -
02/04:30am - - - - - SW 15 17 8 9 - - -
02/04:00am - - - - - WSW 15 17 8 9 - - -
02/03:30am - - - - - SW 19 20 10 11 - - -
02/03:00am - - - - - WSW 15 19 8 10 - - -
02/02:30am - - - - - SW 17 19 9 10 - - -
02/02:00am - - - - - SW 15 17 8 9 - - -
02/01:30am - - - - - WSW 17 20 9 11 - - -
02/01:00am - - - - - SW 22 24 12 13 - - -
02/12:30am - - - - - WSW 20 24 11 13 - - -
02/12:00am - - - - - SW 20 22 11 12 - - -
 
Date/Time
EST
Temp
°C
App
Temp
°C
Dew
Point
Rel
Hum
%
Delta-T
°C
Wind Press
QNH
hPa
Press
MSL
hPa
Rain
since 9 am
mm
Dir
 
Spd
km/h
Gust
km/h
Spd
kts
Gust
kts
01/11:30pm - - - - - SW 20 22 11 12 - - -
01/11:00pm - - - - - WSW 17 19 9 10 - - -
01/10:30pm - - - - - WSW 17 19 9 10 - - -
01/10:00pm - - - - - WSW 17 19 9 10 - - -
01/09:30pm - - - - - WSW 13 15 7 8 - - -
01/09:00pm - - - - - SW 9 11 5 6 - - -
01/08:30pm - - - - - SW 7 9 4 5 - - -
01/08:00pm - - - - - WSW 13 17 7 9 - - -
01/07:30pm - - - - - CALM 0 0 0 0 - - -
01/07:00pm - - - - - N 2 2 1 1 - - -
01/06:30pm - - - - - N 6 7 3 4 - - -
01/06:00pm - - - - - NNE 6 6 3 3 - - -
01/05:30pm - - - - - NNE 4 4 2 2 - - -
01/05:00pm - - - - - ENE 2 4 1 2 - - -

Other Formats:

Comma delimited format used in spreadsheet applications
http://www.bom.gov.au/fwo/IDQ60801/IDQ60801.94581.axf

JavaScript Object Notation format (JSON) in row-major order
http://www.bom.gov.au/fwo/IDQ60801/IDQ60801.94581.json